sensor_id;sensor_type;location;lat;lon;timestamp;pressure;altitude;pressure_sealevel;temperature
34023;BMP280;20673;48.980;8.138;2023-07-02T00:01:50;99512.68;;;16.96
34023;BMP280;20673;48.980;8.138;2023-07-02T00:04:17;99512.45;;;16.94
34023;BMP280;20673;48.980;8.138;2023-07-02T00:06:47;99513.17;;;16.99
34023;BMP280;20673;48.980;8.138;2023-07-02T00:09:15;99513.86;;;17.00
34023;BMP280;20673;48.980;8.138;2023-07-02T00:11:44;99515.53;;;17.02
34023;BMP280;20673;48.980;8.138;2023-07-02T00:14:14;99521.47;;;17.05
34023;BMP280;20673;48.980;8.138;2023-07-02T00:16:45;99517.79;;;17.08
34023;BMP280;20673;48.980;8.138;2023-07-02T00:19:14;99520.59;;;17.17
34023;BMP280;20673;48.980;8.138;2023-07-02T00:21:40;99515.40;;;17.24
34023;BMP280;20673;48.980;8.138;2023-07-02T00:24:08;99508.65;;;17.26
34023;BMP280;20673;48.980;8.138;2023-07-02T00:26:38;99513.12;;;17.28
34023;BMP280;20673;48.980;8.138;2023-07-02T00:29:06;99514.72;;;17.35
34023;BMP280;20673;48.980;8.138;2023-07-02T00:31:33;99520.75;;;17.36
34023;BMP280;20673;48.980;8.138;2023-07-02T00:34:00;99516.18;;;17.37
34023;BMP280;20673;48.980;8.138;2023-07-02T00:36:27;99522.64;;;17.38
34023;BMP280;20673;48.980;8.138;2023-07-02T00:38:54;99520.22;;;17.37
34023;BMP280;20673;48.980;8.138;2023-07-02T00:41:20;99523.83;;;17.39
34023;BMP280;20673;48.980;8.138;2023-07-02T00:43:46;99525.98;;;17.42
34023;BMP280;20673;48.980;8.138;2023-07-02T00:46:17;99521.14;;;17.41
34023;BMP280;20673;48.980;8.138;2023-07-02T00:48:54;99528.25;;;17.42
34023;BMP280;20673;48.980;8.138;2023-07-02T00:51:26;99526.42;;;17.43
34023;BMP280;20673;48.980;8.138;2023-07-02T00:53:55;99529.61;;;17.43
34023;BMP280;20673;48.980;8.138;2023-07-02T00:56:23;99532.79;;;17.45
34023;BMP280;20673;48.980;8.138;2023-07-02T00:58:52;99535.29;;;17.44
34023;BMP280;20673;48.980;8.138;2023-07-02T01:01:22;99532.22;;;17.46
34023;BMP280;20673;48.980;8.138;2023-07-02T01:04:02;99536.04;;;17.48
34023;BMP280;20673;48.980;8.138;2023-07-02T01:06:34;99540.96;;;17.51
34023;BMP280;20673;48.980;8.138;2023-07-02T01:09:03;99543.89;;;17.55
34023;BMP280;20673;48.980;8.138;2023-07-02T01:11:51;99541.43;;;17.55
34023;BMP280;20673;48.980;8.138;2023-07-02T01:14:29;99546.81;;;17.54
34023;BMP280;20673;48.980;8.138;2023-07-02T01:16:59;99549.32;;;17.55
34023;BMP280;20673;48.980;8.138;2023-07-02T01:19:50;99551.31;;;17.58
34023;BMP280;20673;48.980;8.138;2023-07-02T01:22:27;99552.71;;;17.57
34023;BMP280;20673;48.980;8.138;2023-07-02T01:24:51;99549.06;;;17.52
34023;BMP280;20673;48.980;8.138;2023-07-02T01:27:18;99554.87;;;17.54
34023;BMP280;20673;48.980;8.138;2023-07-02T01:29:45;99549.20;;;17.53
34023;BMP280;20673;48.980;8.138;2023-07-02T01:32:14;99549.22;;;17.50
34023;BMP280;20673;48.980;8.138;2023-07-02T01:34:40;99547.00;;;17.46
34023;BMP280;20673;48.980;8.138;2023-07-02T01:37:06;99546.25;;;17.43
34023;BMP280;20673;48.980;8.138;2023-07-02T01:39:34;99550.72;;;17.40
34023;BMP280;20673;48.980;8.138;2023-07-02T01:42:16;99546.75;;;17.43
34023;BMP280;20673;48.980;8.138;2023-07-02T01:44:46;99553.18;;;17.41
34023;BMP280;20673;48.980;8.138;2023-07-02T01:47:13;99550.98;;;17.40
34023;BMP280;20673;48.980;8.138;2023-07-02T01:49:41;99560.36;;;17.38
34023;BMP280;20673;48.980;8.138;2023-07-02T01:52:07;99559.34;;;17.36
34023;BMP280;20673;48.980;8.138;2023-07-02T01:54:35;99561.09;;;17.33
34023;BMP280;20673;48.980;8.138;2023-07-02T01:57:03;99560.76;;;17.32
34023;BMP280;20673;48.980;8.138;2023-07-02T01:59:29;99565.53;;;17.32
34023;BMP280;20673;48.980;8.138;2023-07-02T02:01:56;99564.22;;;17.26
34023;BMP280;20673;48.980;8.138;2023-07-02T02:04:22;99561.98;;;17.25
34023;BMP280;20673;48.980;8.138;2023-07-02T02:06:48;99562.84;;;17.23
34023;BMP280;20673;48.980;8.138;2023-07-02T02:09:14;99561.83;;;17.17
34023;BMP280;20673;48.980;8.138;2023-07-02T02:11:44;99563.06;;;17.14
34023;BMP280;20673;48.980;8.138;2023-07-02T02:14:10;99565.25;;;17.12
34023;BMP280;20673;48.980;8.138;2023-07-02T02:16:36;99565.58;;;17.11
34023;BMP280;20673;48.980;8.138;2023-07-02T02:19:03;99567.33;;;17.08
34023;BMP280;20673;48.980;8.138;2023-07-02T02:21:30;99568.64;;;17.03
34023;BMP280;20673;48.980;8.138;2023-07-02T02:23:56;99564.79;;;17.04
34023;BMP280;20673;48.980;8.138;2023-07-02T02:26:23;99565.61;;;17.00
34023;BMP280;20673;48.980;8.138;2023-07-02T02:28:51;99559.88;;;16.99
34023;BMP280;20673;48.980;8.138;2023-07-02T02:31:17;99562.17;;;16.98
34023;BMP280;20673;48.980;8.138;2023-07-02T02:33:44;99560.59;;;16.97
34023;BMP280;20673;48.980;8.138;2023-07-02T02:36:10;99570.36;;;17.00
34023;BMP280;20673;48.980;8.138;2023-07-02T02:38:36;99568.58;;;16.97
34023;BMP280;20673;48.980;8.138;2023-07-02T02:41:03;99567.01;;;16.95
34023;BMP280;20673;48.980;8.138;2023-07-02T02:43:30;99563.04;;;16.93
34023;BMP280;20673;48.980;8.138;2023-07-02T02:45:56;99570.40;;;16.90
34023;BMP280;20673;48.980;8.138;2023-07-02T02:48:22;99565.83;;;16.86
34023;BMP280;20673;48.980;8.138;2023-07-02T02:50:49;99559.50;;;16.84
34023;BMP280;20673;48.980;8.138;2023-07-02T02:53:15;99566.39;;;16.82
34023;BMP280;20673;48.980;8.138;2023-07-02T02:55:41;99563.98;;;16.80
34023;BMP280;20673;48.980;8.138;2023-07-02T02:58:07;99571.98;;;16.77
34023;BMP280;20673;48.980;8.138;2023-07-02T03:00:33;99575.43;;;16.74
34023;BMP280;20673;48.980;8.138;2023-07-02T03:03:00;99574.87;;;16.74
34023;BMP280;20673;48.980;8.138;2023-07-02T03:05:26;99575.08;;;16.73
34023;BMP280;20673;48.980;8.138;2023-07-02T03:07:52;99580.60;;;16.67
34023;BMP280;20673;48.980;8.138;2023-07-02T03:10:18;99577.85;;;16.66
34023;BMP280;20673;48.980;8.138;2023-07-02T03:12:44;99570.61;;;16.62
34023;BMP280;20673;48.980;8.138;2023-07-02T03:15:11;99575.43;;;16.61
34023;BMP280;20673;48.980;8.138;2023-07-02T03:17:37;99581.01;;;16.59
34023;BMP280;20673;48.980;8.138;2023-07-02T03:20:05;99578.67;;;16.57
34023;BMP280;20673;48.980;8.138;2023-07-02T03:22:33;99581.62;;;16.56
34023;BMP280;20673;48.980;8.138;2023-07-02T03:25:00;99588.92;;;16.50
34023;BMP280;20673;48.980;8.138;2023-07-02T03:27:26;99587.70;;;16.52
34023;BMP280;20673;48.980;8.138;2023-07-02T03:29:52;99590.20;;;16.50
34023;BMP280;20673;48.980;8.138;2023-07-02T03:32:19;99591.06;;;16.47
34023;BMP280;20673;48.980;8.138;2023-07-02T03:34:45;99595.03;;;16.43
34023;BMP280;20673;48.980;8.138;2023-07-02T03:37:11;99598.68;;;16.41
34023;BMP280;20673;48.980;8.138;2023-07-02T03:39:37;99597.84;;;16.37
34023;BMP280;20673;48.980;8.138;2023-07-02T03:42:05;99598.17;;;16.33
34023;BMP280;20673;48.980;8.138;2023-07-02T03:44:31;99598.25;;;16.30
34023;BMP280;20673;48.980;8.138;2023-07-02T03:46:57;99611.39;;;16.27
34023;BMP280;20673;48.980;8.138;2023-07-02T03:49:24;99616.18;;;16.24
34023;BMP280;20673;48.980;8.138;2023-07-02T03:51:50;99624.79;;;16.23
34023;BMP280;20673;48.980;8.138;2023-07-02T03:54:16;99631.09;;;16.25
34023;BMP280;20673;48.980;8.138;2023-07-02T03:56:42;99629.48;;;16.26
34023;BMP280;20673;48.980;8.138;2023-07-02T03:59:08;99636.37;;;16.22
34023;BMP280;20673;48.980;8.138;2023-07-02T04:01:34;99638.89;;;16.23
34023;BMP280;20673;48.980;8.138;2023-07-02T04:04:00;99639.01;;;16.15
34023;BMP280;20673;48.980;8.138;2023-07-02T04:06:27;99639.98;;;16.17
34023;BMP280;20673;48.980;8.138;2023-07-02T04:08:53;99638.45;;;16.16
34023;BMP280;20673;48.980;8.138;2023-07-02T04:11:19;99644.09;;;16.22
34023;BMP280;20673;48.980;8.138;2023-07-02T04:13:45;99647.39;;;16.28
34023;BMP280;20673;48.980;8.138;2023-07-02T04:16:11;99656.47;;;16.28
34023;BMP280;20673;48.980;8.138;2023-07-02T04:18:37;99653.14;;;16.30
34023;BMP280;20673;48.980;8.138;2023-07-02T04:21:03;99659.64;;;16.30
34023;BMP280;20673;48.980;8.138;2023-07-02T04:23:29;99659.04;;;16.33
34023;BMP280;20673;48.980;8.138;2023-07-02T04:25:55;99663.53;;;16.32
34023;BMP280;20673;48.980;8.138;2023-07-02T04:28:21;99661.81;;;16.38
34023;BMP280;20673;48.980;8.138;2023-07-02T04:30:47;99668.45;;;16.37
34023;BMP280;20673;48.980;8.138;2023-07-02T04:33:15;99672.03;;;16.41
34023;BMP280;20673;48.980;8.138;2023-07-02T04:35:42;99673.61;;;16.48
34023;BMP280;20673;48.980;8.138;2023-07-02T04:38:08;99678.23;;;16.52
34023;BMP280;20673;48.980;8.138;2023-07-02T04:40:34;99679.53;;;16.55
34023;BMP280;20673;48.980;8.138;2023-07-02T04:43:02;99686.02;;;16.60
34023;BMP280;20673;48.980;8.138;2023-07-02T04:45:29;99681.73;;;16.60
34023;BMP280;20673;48.980;8.138;2023-07-02T04:48:00;99685.15;;;16.62
34023;BMP280;20673;48.980;8.138;2023-07-02T04:50:26;99685.61;;;16.67
34023;BMP280;20673;48.980;8.138;2023-07-02T04:52:52;99690.50;;;16.68
34023;BMP280;20673;48.980;8.138;2023-07-02T04:55:18;99691.50;;;16.68
34023;BMP280;20673;48.980;8.138;2023-07-02T04:57:44;99692.65;;;16.67
34023;BMP280;20673;48.980;8.138;2023-07-02T05:00:12;99700.47;;;16.73
34023;BMP280;20673;48.980;8.138;2023-07-02T05:02:40;99701.83;;;16.77
34023;BMP280;20673;48.980;8.138;2023-07-02T05:05:07;99694.61;;;16.77
34023;BMP280;20673;48.980;8.138;2023-07-02T05:07:33;99696.35;;;16.83
34023;BMP280;20673;48.980;8.138;2023-07-02T05:09:59;99697.65;;;16.87
34023;BMP280;20673;48.980;8.138;2023-07-02T05:12:25;99690.72;;;16.91
34023;BMP280;20673;48.980;8.138;2023-07-02T05:14:51;99695.97;;;16.96
34023;BMP280;20673;48.980;8.138;2023-07-02T05:17:17;99699.50;;;17.02
34023;BMP280;20673;48.980;8.138;2023-07-02T05:19:43;99698.28;;;17.01
34023;BMP280;20673;48.980;8.138;2023-07-02T05:22:10;99702.20;;;17.07
34023;BMP280;20673;48.980;8.138;2023-07-02T05:24:36;99704.74;;;17.12
34023;BMP280;20673;48.980;8.138;2023-07-02T05:27:03;99701.77;;;17.18
34023;BMP280;20673;48.980;8.138;2023-07-02T05:29:30;99706.40;;;17.24
34023;BMP280;20673;48.980;8.138;2023-07-02T05:31:56;99710.29;;;17.28
34023;BMP280;20673;48.980;8.138;2023-07-02T05:34:22;99710.64;;;17.36
34023;BMP280;20673;48.980;8.138;2023-07-02T05:36:48;99709.86;;;17.43
34023;BMP280;20673;48.980;8.138;2023-07-02T05:39:14;99709.40;;;17.51
34023;BMP280;20673;48.980;8.138;2023-07-02T05:41:40;99713.89;;;17.55
34023;BMP280;20673;48.980;8.138;2023-07-02T05:44:06;99715.06;;;17.61
34023;BMP280;20673;48.980;8.138;2023-07-02T05:46:32;99708.68;;;17.66
34023;BMP280;20673;48.980;8.138;2023-07-02T05:48:58;99714.09;;;17.75
34023;BMP280;20673;48.980;8.138;2023-07-02T05:51:25;99723.06;;;17.79
34023;BMP280;20673;48.980;8.138;2023-07-02T05:53:52;99722.08;;;17.82
34023;BMP280;20673;48.980;8.138;2023-07-02T05:56:19;99724.24;;;17.91
34023;BMP280;20673;48.980;8.138;2023-07-02T05:58:46;99729.54;;;17.97
34023;BMP280;20673;48.980;8.138;2023-07-02T06:01:12;99725.05;;;17.97
34023;BMP280;20673;48.980;8.138;2023-07-02T06:03:40;99730.14;;;18.08
34023;BMP280;20673;48.980;8.138;2023-07-02T06:06:06;99733.20;;;18.10
34023;BMP280;20673;48.980;8.138;2023-07-02T06:08:32;99739.58;;;18.21
34023;BMP280;20673;48.980;8.138;2023-07-02T06:10:58;99744.14;;;18.24
34023;BMP280;20673;48.980;8.138;2023-07-02T06:13:24;99742.50;;;18.27
34023;BMP280;20673;48.980;8.138;2023-07-02T06:15:50;99747.83;;;18.35
34023;BMP280;20673;48.980;8.138;2023-07-02T06:18:16;99745.81;;;18.37
34023;BMP280;20673;48.980;8.138;2023-07-02T06:20:44;99745.86;;;18.47
34023;BMP280;20673;48.980;8.138;2023-07-02T06:23:10;99750.15;;;18.50
34023;BMP280;20673;48.980;8.138;2023-07-02T06:25:36;99751.62;;;18.55
34023;BMP280;20673;48.980;8.138;2023-07-02T06:28:02;99755.87;;;18.58
34023;BMP280;20673;48.980;8.138;2023-07-02T06:30:28;99751.78;;;18.59
34023;BMP280;20673;48.980;8.138;2023-07-02T06:32:55;99753.25;;;18.54
34023;BMP280;20673;48.980;8.138;2023-07-02T06:35:21;99751.11;;;18.52
34023;BMP280;20673;48.980;8.138;2023-07-02T06:37:47;99753.75;;;18.52
34023;BMP280;20673;48.980;8.138;2023-07-02T06:40:13;99757.72;;;18.50
34023;BMP280;20673;48.980;8.138;2023-07-02T06:42:40;99762.39;;;18.47
34023;BMP280;20673;48.980;8.138;2023-07-02T06:45:07;99762.59;;;18.50
34023;BMP280;20673;48.980;8.138;2023-07-02T06:47:33;99761.03;;;18.59
34023;BMP280;20673;48.980;8.138;2023-07-02T06:49:59;99760.29;;;18.65
34023;BMP280;20673;48.980;8.138;2023-07-02T06:52:25;99761.18;;;18.78
34023;BMP280;20673;48.980;8.138;2023-07-02T06:54:52;99749.43;;;18.89
34023;BMP280;20673;48.980;8.138;2023-07-02T06:57:18;99763.37;;;19.01
34023;BMP280;20673;48.980;8.138;2023-07-02T06:59:44;99761.87;;;19.10
34023;BMP280;20673;48.980;8.138;2023-07-02T07:02:10;99768.98;;;19.07
34023;BMP280;20673;48.980;8.138;2023-07-02T07:04:36;99768.07;;;19.07
34023;BMP280;20673;48.980;8.138;2023-07-02T07:07:03;99762.97;;;19.15
34023;BMP280;20673;48.980;8.138;2023-07-02T07:09:29;99770.62;;;19.21
34023;BMP280;20673;48.980;8.138;2023-07-02T07:11:56;99771.67;;;19.17
34023;BMP280;20673;48.980;8.138;2023-07-02T07:14:22;99771.25;;;19.30
34023;BMP280;20673;48.980;8.138;2023-07-02T07:16:49;99767.13;;;19.50
34023;BMP280;20673;48.980;8.138;2023-07-02T07:19:16;99766.63;;;19.58
34023;BMP280;20673;48.980;8.138;2023-07-02T07:21:42;99769.05;;;19.74
34023;BMP280;20673;48.980;8.138;2023-07-02T07:24:09;99762.26;;;19.80
34023;BMP280;20673;48.980;8.138;2023-07-02T07:26:35;99761.22;;;19.70
34023;BMP280;20673;48.980;8.138;2023-07-02T07:29:01;99767.97;;;19.78
34023;BMP280;20673;48.980;8.138;2023-07-02T07:31:29;99760.75;;;19.91
34023;BMP280;20673;48.980;8.138;2023-07-02T07:33:55;99775.64;;;20.03
34023;BMP280;20673;48.980;8.138;2023-07-02T07:36:21;99765.66;;;19.92
34023;BMP280;20673;48.980;8.138;2023-07-02T07:38:47;99764.70;;;19.97
34023;BMP280;20673;48.980;8.138;2023-07-02T07:41:13;99769.41;;;20.23
34023;BMP280;20673;48.980;8.138;2023-07-02T07:43:40;99767.81;;;20.31
34023;BMP280;20673;48.980;8.138;2023-07-02T07:46:06;99766.31;;;20.09
34023;BMP280;20673;48.980;8.138;2023-07-02T07:48:32;99776.18;;;20.02
34023;BMP280;20673;48.980;8.138;2023-07-02T07:50:58;99774.49;;;20.32
34023;BMP280;20673;48.980;8.138;2023-07-02T07:53:25;99774.54;;;20.47
34023;BMP280;20673;48.980;8.138;2023-07-02T07:55:51;99772.29;;;20.63
34023;BMP280;20673;48.980;8.138;2023-07-02T07:58:17;99776.61;;;20.71
34023;BMP280;20673;48.980;8.138;2023-07-02T08:00:43;99768.13;;;20.57
34023;BMP280;20673;48.980;8.138;2023-07-02T08:03:10;99771.10;;;20.46
34023;BMP280;20673;48.980;8.138;2023-07-02T08:05:37;99771.11;;;20.55
34023;BMP280;20673;48.980;8.138;2023-07-02T08:08:03;99772.36;;;20.69
34023;BMP280;20673;48.980;8.138;2023-07-02T08:10:30;99767.61;;;21.04
34023;BMP280;20673;48.980;8.138;2023-07-02T08:12:56;99771.96;;;21.03
34023;BMP280;20673;48.980;8.138;2023-07-02T08:15:22;99772.95;;;21.10
34023;BMP280;20673;48.980;8.138;2023-07-02T08:17:48;99763.38;;;21.23
34023;BMP280;20673;48.980;8.138;2023-07-02T08:20:15;99771.43;;;21.10
34023;BMP280;20673;48.980;8.138;2023-07-02T08:22:43;99767.86;;;20.93
34023;BMP280;20673;48.980;8.138;2023-07-02T08:25:09;99773.68;;;20.72
34023;BMP280;20673;48.980;8.138;2023-07-02T08:27:35;99772.04;;;20.79
34023;BMP280;20673;48.980;8.138;2023-07-02T08:30:01;99774.15;;;20.99
34023;BMP280;20673;48.980;8.138;2023-07-02T08:32:27;99783.73;;;21.02
34023;BMP280;20673;48.980;8.138;2023-07-02T08:34:53;99780.87;;;20.99
34023;BMP280;20673;48.980;8.138;2023-07-02T08:37:20;99776.90;;;21.42
34023;BMP280;20673;48.980;8.138;2023-07-02T08:39:49;99765.91;;;21.57
34023;BMP280;20673;48.980;8.138;2023-07-02T08:42:15;99766.86;;;21.80
34023;BMP280;20673;48.980;8.138;2023-07-02T08:44:47;99754.95;;;21.68
34023;BMP280;20673;48.980;8.138;2023-07-02T08:47:13;99766.35;;;21.42
34023;BMP280;20673;48.980;8.138;2023-07-02T08:49:41;99776.59;;;21.44
34023;BMP280;20673;48.980;8.138;2023-07-02T08:52:07;99769.78;;;21.43
34023;BMP280;20673;48.980;8.138;2023-07-02T08:54:34;99772.32;;;21.43
34023;BMP280;20673;48.980;8.138;2023-07-02T08:57:00;99765.53;;;21.76
34023;BMP280;20673;48.980;8.138;2023-07-02T08:59:28;99764.81;;;22.32
34023;BMP280;20673;48.980;8.138;2023-07-02T09:01:55;99765.93;;;22.47
34023;BMP280;20673;48.980;8.138;2023-07-02T09:04:23;99763.84;;;22.47
34023;BMP280;20673;48.980;8.138;2023-07-02T09:07:09;99771.59;;;22.68
34023;BMP280;20673;48.980;8.138;2023-07-02T09:09:49;99767.78;;;22.92
34023;BMP280;20673;48.980;8.138;2023-07-02T09:12:31;99764.37;;;23.20
34023;BMP280;20673;48.980;8.138;2023-07-02T09:15:02;99770.49;;;22.96
34023;BMP280;20673;48.980;8.138;2023-07-02T09:17:35;99758.00;;;23.02
34023;BMP280;20673;48.980;8.138;2023-07-02T09:20:01;99775.51;;;23.08
34023;BMP280;20673;48.980;8.138;2023-07-02T09:22:29;99765.65;;;23.12
34023;BMP280;20673;48.980;8.138;2023-07-02T09:24:58;99759.04;;;23.16
34023;BMP280;20673;48.980;8.138;2023-07-02T09:27:40;99768.70;;;23.07
34023;BMP280;20673;48.980;8.138;2023-07-02T09:30:15;99765.65;;;23.12
34023;BMP280;20673;48.980;8.138;2023-07-02T09:32:45;99763.18;;;23.55
34023;BMP280;20673;48.980;8.138;2023-07-02T09:35:12;99764.00;;;23.59
34023;BMP280;20673;48.980;8.138;2023-07-02T09:37:43;99762.34;;;23.29
34023;BMP280;20673;48.980;8.138;2023-07-02T09:40:10;99759.78;;;23.04
34023;BMP280;20673;48.980;8.138;2023-07-02T09:42:39;99755.57;;;23.18
34023;BMP280;20673;48.980;8.138;2023-07-02T09:45:08;99764.14;;;23.64
34023;BMP280;20673;48.980;8.138;2023-07-02T09:47:42;99741.15;;;23.75
34023;BMP280;20673;48.980;8.138;2023-07-02T09:50:09;99761.78;;;23.96
34023;BMP280;20673;48.980;8.138;2023-07-02T09:52:38;99745.12;;;23.86
34023;BMP280;20673;48.980;8.138;2023-07-02T09:55:06;99743.97;;;23.75
34023;BMP280;20673;48.980;8.138;2023-07-02T09:57:33;99749.04;;;23.77
34023;BMP280;20673;48.980;8.138;2023-07-02T10:00:01;99752.13;;;23.67
34023;BMP280;20673;48.980;8.138;2023-07-02T10:02:28;99741.76;;;23.64
34023;BMP280;20673;48.980;8.138;2023-07-02T10:04:54;99750.76;;;23.23
34023;BMP280;20673;48.980;8.138;2023-07-02T10:07:30;99745.28;;;22.97
34023;BMP280;20673;48.980;8.138;2023-07-02T10:09:56;99754.63;;;23.32
34023;BMP280;20673;48.980;8.138;2023-07-02T10:12:25;99753.72;;;23.66
34023;BMP280;20673;48.980;8.138;2023-07-02T10:14:57;99750.47;;;23.97
34023;BMP280;20673;48.980;8.138;2023-07-02T10:17:32;99750.83;;;23.91
34023;BMP280;20673;48.980;8.138;2023-07-02T10:20:04;99755.92;;;24.13
34023;BMP280;20673;48.980;8.138;2023-07-02T10:22:49;99760.31;;;24.33
34023;BMP280;20673;48.980;8.138;2023-07-02T10:25:32;99756.31;;;25.04
34023;BMP280;20673;48.980;8.138;2023-07-02T10:28:01;99764.50;;;24.81
34023;BMP280;20673;48.980;8.138;2023-07-02T10:30:37;99751.33;;;24.74
34023;BMP280;20673;48.980;8.138;2023-07-02T10:33:15;99756.00;;;25.12
34023;BMP280;20673;48.980;8.138;2023-07-02T10:35:47;99743.09;;;24.66
34023;BMP280;20673;48.980;8.138;2023-07-02T10:38:22;99731.72;;;24.36
34023;BMP280;20673;48.980;8.138;2023-07-02T10:40:56;99744.14;;;24.31
34023;BMP280;20673;48.980;8.138;2023-07-02T10:43:29;99740.50;;;24.21
34023;BMP280;20673;48.980;8.138;2023-07-02T10:45:57;99739.17;;;24.27
34023;BMP280;20673;48.980;8.138;2023-07-02T10:48:25;99736.87;;;23.93
34023;BMP280;20673;48.980;8.138;2023-07-02T10:50:51;99739.08;;;23.90
34023;BMP280;20673;48.980;8.138;2023-07-02T10:53:19;99745.81;;;23.60
34023;BMP280;20673;48.980;8.138;2023-07-02T10:55:54;99760.32;;;24.18
34023;BMP280;20673;48.980;8.138;2023-07-02T10:58:21;99753.25;;;24.65
34023;BMP280;20673;48.980;8.138;2023-07-02T11:00:50;99751.79;;;24.85
34023;BMP280;20673;48.980;8.138;2023-07-02T11:03:22;99740.63;;;25.21
34023;BMP280;20673;48.980;8.138;2023-07-02T11:05:50;99742.43;;;25.59
34023;BMP280;20673;48.980;8.138;2023-07-02T11:08:17;99741.00;;;25.78
34023;BMP280;20673;48.980;8.138;2023-07-02T11:10:44;99736.86;;;25.83
34023;BMP280;20673;48.980;8.138;2023-07-02T11:13:15;99741.46;;;26.31
34023;BMP280;20673;48.980;8.138;2023-07-02T11:15:43;99732.52;;;26.33
34023;BMP280;20673;48.980;8.138;2023-07-02T11:18:13;99737.48;;;26.49
34023;BMP280;20673;48.980;8.138;2023-07-02T11:20:44;99732.91;;;26.92
34023;BMP280;20673;48.980;8.138;2023-07-02T11:23:21;99732.28;;;26.75
34023;BMP280;20673;48.980;8.138;2023-07-02T11:26:00;99732.46;;;27.06
34023;BMP280;20673;48.980;8.138;2023-07-02T11:28:30;99721.32;;;26.77
34023;BMP280;20673;48.980;8.138;2023-07-02T11:30:58;99725.76;;;27.16
34023;BMP280;20673;48.980;8.138;2023-07-02T11:33:38;99704.93;;;26.48
34023;BMP280;20673;48.980;8.138;2023-07-02T11:36:06;99705.56;;;25.86
34023;BMP280;20673;48.980;8.138;2023-07-02T11:38:36;99717.97;;;26.03
34023;BMP280;20673;48.980;8.138;2023-07-02T11:41:03;99722.85;;;26.32
34023;BMP280;20673;48.980;8.138;2023-07-02T11:43:30;99719.81;;;26.51
34023;BMP280;20673;48.980;8.138;2023-07-02T11:45:56;99717.83;;;26.73
34023;BMP280;20673;48.980;8.138;2023-07-02T11:48:22;99722.33;;;27.02
34023;BMP280;20673;48.980;8.138;2023-07-02T11:50:48;99711.65;;;27.10
34023;BMP280;20673;48.980;8.138;2023-07-02T11:53:15;99711.35;;;27.36
34023;BMP280;20673;48.980;8.138;2023-07-02T11:55:41;99712.07;;;27.28
34023;BMP280;20673;48.980;8.138;2023-07-02T11:58:07;99707.19;;;27.83
34023;BMP280;20673;48.980;8.138;2023-07-02T12:00:33;99705.31;;;27.28
34023;BMP280;20673;48.980;8.138;2023-07-02T12:02:59;99703.31;;;27.16
34023;BMP280;20673;48.980;8.138;2023-07-02T12:05:25;99704.03;;;27.37
34023;BMP280;20673;48.980;8.138;2023-07-02T12:07:51;99693.03;;;26.50
34023;BMP280;20673;48.980;8.138;2023-07-02T12:10:18;99682.12;;;26.11
34023;BMP280;20673;48.980;8.138;2023-07-02T12:12:44;99680.33;;;25.94
34023;BMP280;20673;48.980;8.138;2023-07-02T12:15:11;99690.93;;;26.22
34023;BMP280;20673;48.980;8.138;2023-07-02T12:17:37;99683.58;;;25.83
34023;BMP280;20673;48.980;8.138;2023-07-02T12:20:04;99684.51;;;25.64
34023;BMP280;20673;48.980;8.138;2023-07-02T12:22:30;99691.95;;;25.40
34023;BMP280;20673;48.980;8.138;2023-07-02T12:24:56;99694.20;;;25.99
34023;BMP280;20673;48.980;8.138;2023-07-02T12:27:23;99671.14;;;25.66
34023;BMP280;20673;48.980;8.138;2023-07-02T12:29:51;99680.24;;;25.82
34023;BMP280;20673;48.980;8.138;2023-07-02T12:32:17;99698.95;;;26.44
34023;BMP280;20673;48.980;8.138;2023-07-02T12:34:43;99676.03;;;26.54
34023;BMP280;20673;48.980;8.138;2023-07-02T12:37:09;99689.92;;;26.80
34023;BMP280;20673;48.980;8.138;2023-07-02T12:39:35;99682.01;;;26.20
34023;BMP280;20673;48.980;8.138;2023-07-02T12:42:02;99696.35;;;26.47
34023;BMP280;20673;48.980;8.138;2023-07-02T12:44:28;99677.26;;;26.42
34023;BMP280;20673;48.980;8.138;2023-07-02T12:46:54;99686.45;;;26.11
34023;BMP280;20673;48.980;8.138;2023-07-02T12:49:20;99695.45;;;26.44
34023;BMP280;20673;48.980;8.138;2023-07-02T12:51:46;99689.76;;;27.08
34023;BMP280;20673;48.980;8.138;2023-07-02T12:54:12;99683.10;;;27.31
34023;BMP280;20673;48.980;8.138;2023-07-02T12:56:39;99688.51;;;27.58
34023;BMP280;20673;48.980;8.138;2023-07-02T12:59:05;99673.63;;;27.32
34023;BMP280;20673;48.980;8.138;2023-07-02T13:01:31;99697.54;;;27.27
34023;BMP280;20673;48.980;8.138;2023-07-02T13:03:57;99689.15;;;27.15
34023;BMP280;20673;48.980;8.138;2023-07-02T13:06:23;99684.03;;;27.43
34023;BMP280;20673;48.980;8.138;2023-07-02T13:08:49;99676.87;;;27.52
34023;BMP280;20673;48.980;8.138;2023-07-02T13:11:15;99661.14;;;26.57
34023;BMP280;20673;48.980;8.138;2023-07-02T13:13:41;99679.65;;;26.86
34023;BMP280;20673;48.980;8.138;2023-07-02T13:16:07;99668.90;;;26.98
34023;BMP280;20673;48.980;8.138;2023-07-02T13:18:33;99672.22;;;27.13
34023;BMP280;20673;48.980;8.138;2023-07-02T13:20:59;99674.54;;;27.88
34023;BMP280;20673;48.980;8.138;2023-07-02T13:23:26;99661.33;;;27.94
34023;BMP280;20673;48.980;8.138;2023-07-02T13:25:52;99675.23;;;28.12
34023;BMP280;20673;48.980;8.138;2023-07-02T13:28:19;99665.89;;;28.30
34023;BMP280;20673;48.980;8.138;2023-07-02T13:30:47;99665.19;;;28.19
34023;BMP280;20673;48.980;8.138;2023-07-02T13:33:13;99664.65;;;27.79
34023;BMP280;20673;48.980;8.138;2023-07-02T13:35:39;99664.68;;;28.19
34023;BMP280;20673;48.980;8.138;2023-07-02T13:38:05;99666.04;;;28.01
34023;BMP280;20673;48.980;8.138;2023-07-02T13:40:31;99666.06;;;28.52
34023;BMP280;20673;48.980;8.138;2023-07-02T13:42:57;99662.98;;;28.11
34023;BMP280;20673;48.980;8.138;2023-07-02T13:45:23;99652.15;;;28.26
34023;BMP280;20673;48.980;8.138;2023-07-02T13:47:50;99659.31;;;28.65
34023;BMP280;20673;48.980;8.138;2023-07-02T13:50:16;99658.83;;;28.12
34023;BMP280;20673;48.980;8.138;2023-07-02T13:52:42;99653.78;;;28.42
34023;BMP280;20673;48.980;8.138;2023-07-02T13:55:09;99657.76;;;28.27
34023;BMP280;20673;48.980;8.138;2023-07-02T13:57:35;99658.26;;;28.26
34023;BMP280;20673;48.980;8.138;2023-07-02T14:00:01;99665.11;;;28.27
34023;BMP280;20673;48.980;8.138;2023-07-02T14:02:27;99654.47;;;27.83
34023;BMP280;20673;48.980;8.138;2023-07-02T14:04:53;99651.51;;;28.05
34023;BMP280;20673;48.980;8.138;2023-07-02T14:07:19;99656.55;;;28.03
34023;BMP280;20673;48.980;8.138;2023-07-02T14:09:46;99652.74;;;28.20
34023;BMP280;20673;48.980;8.138;2023-07-02T14:12:12;99650.78;;;28.23